Time;durP1;ratioP1;P1;durP2;ratioP2;P2;SDS_P1;SDS_P2;PMS_P1;PMS_P2;Temp;Humidity;BMP_temperature;BMP_pressure;BME280_temperature;BME280_humidity;BME280_pressure;Samples;Min_cycle;Max_cycle;Signal;HPM_P1;HPM_P2
2021/06/21 00:02:17;;;;;;;11.07;2.53;;;23.90;50.00;;;;;;5069169;28;20463;-83
2021/06/21 00:04:44;;;;;;;15.87;3.27;;;24.10;49.10;;;;;;5071412;28;20502;-83
2021/06/21 00:07:11;;;;;;;14.23;3.17;;;24.10;48.30;;;;;;5073038;28;20956;-84
2021/06/21 00:09:40;;;;;;;33.67;3.93;;;24.10;49.00;;;;;;5074943;28;20494;-83
2021/06/21 00:12:09;;;;;;;30.33;4.10;;;24.00;48.20;;;;;;5067009;28;20463;-84
2021/06/21 00:14:36;;;;;;;18.10;3.10;;;23.90;48.10;;;;;;5069383;28;20482;-83
2021/06/21 00:17:03;;;;;;;13.33;3.03;;;23.70;48.80;;;;;;5074176;28;20435;-84
2021/06/21 00:19:30;;;;;;;10.77;3.00;;;23.60;49.30;;;;;;5071823;28;20878;-84
2021/06/21 00:21:58;;;;;;;17.00;3.40;;;23.60;49.80;;;;;;5072956;28;20486;-84
2021/06/21 00:24:25;;;;;;;40.03;3.67;;;23.60;49.50;;;;;;5064780;28;20523;-84
2021/06/21 00:26:52;;;;;;;24.70;3.50;;;23.50;50.10;;;;;;5075966;28;20456;-83
2021/06/21 00:29:21;;;;;;;10.53;2.90;;;23.30;49.90;;;;;;5076337;28;20491;-83
2021/06/21 00:31:48;;;;;;;14.57;3.67;;;23.10;51.10;;;;;;5075093;28;20460;-83
2021/06/21 00:34:15;;;;;;;17.53;3.60;;;23.10;51.30;;;;;;5078238;28;20497;-83
2021/06/21 00:36:42;;;;;;;8.60;2.90;;;23.10;51.30;;;;;;5078961;28;20917;-82
2021/06/21 00:39:10;;;;;;;16.43;3.53;;;23.10;51.40;;;;;;5074230;28;20528;-83
2021/06/21 00:41:37;;;;;;;21.87;4.50;;;23.20;51.10;;;;;;5079181;28;20523;-83
2021/06/21 00:44:05;;;;;;;19.63;4.17;;;23.30;51.20;;;;;;5073921;28;20513;-83
2021/06/21 00:46:33;;;;;;;15.90;4.40;;;23.40;50.90;;;;;;5072868;28;20844;-82
2021/06/21 00:49:00;;;;;;;31.27;4.23;;;23.30;51.00;;;;;;5068333;28;20470;-82
2021/06/21 00:51:27;;;;;;;26.40;5.97;;;23.30;50.70;;;;;;5074570;28;20554;-83
2021/06/21 00:53:54;;;;;;;18.40;4.27;;;23.40;50.40;;;;;;5078727;28;20524;-83
2021/06/21 00:56:21;;;;;;;21.23;4.67;;;23.40;50.30;;;;;;5077282;28;20454;-82
2021/06/21 00:58:49;;;;;;;4.97;2.70;;;23.40;50.50;;;;;;5071884;28;20494;-83
2021/06/21 01:01:16;;;;;;;9.73;2.87;;;23.60;50.50;;;;;;5068609;28;20454;-83
2021/06/21 01:03:44;;;;;;;12.13;3.33;;;23.80;49.70;;;;;;5079364;28;20518;-83
2021/06/21 01:06:11;;;;;;;13.97;4.77;;;23.90;49.50;;;;;;5066388;28;20494;-83
2021/06/21 01:08:38;;;;;;;14.27;3.47;;;23.90;49.10;;;;;;5077993;28;20866;-84
2021/06/21 01:11:05;;;;;;;22.70;4.07;;;23.80;49.30;;;;;;5089488;28;20459;-83
2021/06/21 01:13:48;;;;;;;22.00;4.50;;;23.80;49.80;;;;;;5073174;28;20551;-83
2021/06/21 01:16:19;;;;;;;11.40;2.70;;;23.80;49.60;;;;;;5076490;28;20459;-83
2021/06/21 01:18:54;;;;;;;7.07;3.87;;;23.80;49.50;;;;;;5068230;28;20464;-83
2021/06/21 01:22:03;;;;;;;22.73;8.10;;;23.90;49.60;;;;;;5072829;28;20460;-83
2021/06/21 01:25:12;;;;;;;20.27;5.57;;;23.80;49.60;;;;;;5070990;28;20505;-83
2021/06/21 01:27:51;;;;;;;30.80;7.90;;;23.70;49.80;;;;;;5080437;28;20424;-83
2021/06/21 01:30:21;;;;;;;23.30;3.90;;;23.70;50.00;;;;;;5076080;28;20824;-83
2021/06/21 01:32:51;;;;;;;15.37;3.00;;;23.80;50.00;;;;;;5077504;28;20483;-83
2021/06/21 01:35:22;;;;;;;18.97;3.10;;;23.90;49.80;;;;;;5077524;28;20463;-84
2021/06/21 01:37:55;;;;;;;9.70;4.17;;;24.00;49.70;;;;;;5045301;28;20490;-83
2021/06/21 01:40:23;;;;;;;17.17;3.60;;;23.80;49.60;;;;;;5075538;28;20982;-84
2021/06/21 01:42:55;;;;;;;12.40;3.30;;;23.50;50.70;;;;;;5076262;28;20572;-83
2021/06/21 01:45:23;;;;;;;20.30;4.60;;;23.30;51.30;;;;;;5076894;28;20514;-83
2021/06/21 01:47:53;;;;;;;15.73;3.70;;;22.90;52.80;;;;;;5073528;28;20498;-83
2021/06/21 01:50:23;;;;;;;15.77;4.30;;;22.60;53.50;;;;;;5069231;28;20463;-83
2021/06/21 01:52:57;;;;;;;15.03;3.67;;;22.50;53.90;;;;;;5070009;28;20497;-83
2021/06/21 01:55:26;;;;;;;25.97;4.20;;;22.40;53.80;;;;;;5073462;28;20548;-83
2021/06/21 01:57:55;;;;;;;10.73;3.60;;;22.70;53.30;;;;;;5074145;28;20626;-83
2021/06/21 02:00:22;;;;;;;16.53;3.53;;;23.20;52.10;;;;;;5068640;28;20455;-84
2021/06/21 02:02:53;;;;;;;16.07;4.37;;;23.50;51.10;;;;;;5072129;28;20459;-83
2021/06/21 02:05:22;;;;;;;10.07;4.60;;;23.50;50.70;;;;;;5065106;28;20530;-83
2021/06/21 02:07:51;;;;;;;21.20;4.73;;;22.90;52.30;;;;;;5061067;28;20448;-83
2021/06/21 02:10:20;;;;;;;12.90;4.27;;;22.30;53.80;;;;;;5056893;28;20917;-83
2021/06/21 02:12:48;;;;;;;20.53;5.37;;;22.20;54.80;;;;;;5069412;28;20455;-84
2021/06/21 02:15:16;;;;;;;16.80;4.60;;;22.20;54.60;;;;;;5073421;28;20471;-83
2021/06/21 02:17:44;;;;;;;6.80;3.30;;;22.10;54.60;;;;;;5078380;28;20457;-83
2021/06/21 02:20:15;;;;;;;12.00;3.33;;;21.90;55.20;;;;;;5058562;28;20531;-83
2021/06/21 02:22:42;;;;;;;16.63;4.73;;;22.10;54.40;;;;;;5058282;28;20499;-83
2021/06/21 02:25:11;;;;;;;34.47;4.90;;;22.50;53.70;;;;;;5058608;28;20984;-83
2021/06/21 02:27:39;;;;;;;13.07;3.80;;;22.70;53.00;;;;;;5072416;28;20960;-83
2021/06/21 02:30:09;;;;;;;15.43;3.73;;;22.80;52.40;;;;;;5063708;28;20468;-83
2021/06/21 02:32:37;;;;;;;15.13;3.77;;;23.00;52.20;;;;;;5070604;28;20441;-83
2021/06/21 02:35:06;;;;;;;11.73;3.73;;;22.90;52.40;;;;;;5080415;28;20525;-82
2021/06/21 02:37:36;;;;;;;15.53;2.87;;;23.10;51.80;;;;;;5078885;28;20446;-84
2021/06/21 02:40:04;;;;;;;23.93;4.43;;;23.10;51.70;;;;;;5068548;28;20487;-83
2021/06/21 02:42:31;;;;;;;14.83;3.93;;;22.70;52.20;;;;;;5069881;28;20509;-83
2021/06/21 02:44:58;;;;;;;14.13;4.83;;;22.80;52.20;;;;;;5078084;28;20543;-83
2021/06/21 02:47:25;;;;;;;13.20;3.50;;;22.70;52.10;;;;;;5089681;28;20498;-84
2021/06/21 02:49:53;;;;;;;27.80;4.00;;;23.00;52.00;;;;;;5096348;28;20440;-85
2021/06/21 02:52:29;;;;;;;14.00;3.70;;;23.10;51.10;;;;;;5098720;28;20415;-84
2021/06/21 02:55:09;;;;;;;13.70;3.27;;;23.00;51.20;;;;;;5081636;28;20463;-82
2021/06/21 02:57:45;;;;;;;19.77;4.43;;;22.60;51.70;;;;;;5076903;28;20495;-85
2021/06/21 03:00:14;;;;;;;14.70;5.50;;;22.60;52.00;;;;;;5079332;28;20450;-83
2021/06/21 03:02:46;;;;;;;23.67;6.17;;;22.70;52.10;;;;;;5098692;28;20435;-82
2021/06/21 03:05:15;;;;;;;22.83;5.40;;;22.80;52.00;;;;;;5098016;28;20471;-82
2021/06/21 03:07:43;;;;;;;21.97;7.00;;;22.90;51.50;;;;;;5071119;28;20463;-83
2021/06/21 03:10:14;;;;;;;10.60;3.80;;;23.00;51.40;;;;;;5077576;28;20459;-83
2021/06/21 03:12:45;;;;;;;16.00;3.27;;;23.30;50.90;;;;;;5074019;28;20455;-83
2021/06/21 03:15:14;;;;;;;11.07;3.23;;;23.40;50.10;;;;;;5076926;28;20543;-82
2021/06/21 03:17:41;;;;;;;12.73;3.43;;;23.20;50.50;;;;;;5075060;28;20471;-83
2021/06/21 03:20:10;;;;;;;11.03;3.00;;;23.10;50.50;;;;;;5062830;28;20988;-81
2021/06/21 03:22:39;;;;;;;6.33;2.93;;;23.10;50.60;;;;;;5061259;28;20965;-84
2021/06/21 03:25:07;;;;;;;14.63;3.33;;;23.10;50.70;;;;;;5060103;28;20498;-82
2021/06/21 03:27:37;;;;;;;33.60;4.23;;;23.40;49.80;;;;;;5073637;28;20459;-83
2021/06/21 03:30:07;;;;;;;24.53;4.73;;;23.40;49.80;;;;;;5077277;28;20518;-82
2021/06/21 03:32:37;;;;;;;15.70;3.00;;;23.00;49.90;;;;;;5077181;28;20492;-82
2021/06/21 03:35:09;;;;;;;19.03;3.27;;;23.20;50.50;;;;;;5082860;28;20475;-82
2021/06/21 03:37:36;;;;;;;17.00;3.50;;;23.30;49.60;;;;;;5090418;28;20459;-83
2021/06/21 03:40:04;;;;;;;15.60;3.07;;;22.90;50.40;;;;;;5071037;28;20443;-83
2021/06/21 03:42:31;;;;;;;12.33;2.90;;;22.80;50.70;;;;;;5063712;28;20945;-83
2021/06/21 03:44:59;;;;;;;6.30;3.03;;;22.90;50.80;;;;;;5057128;28;20555;-83
2021/06/21 03:47:26;;;;;;;17.30;3.63;;;23.10;50.80;;;;;;5061791;28;20491;-83
2021/06/21 03:49:54;;;;;;;16.87;3.93;;;23.30;50.50;;;;;;5076446;28;20436;-84
2021/06/21 03:52:20;;;;;;;10.00;2.90;;;23.30;49.70;;;;;;5062238;28;20452;-83
2021/06/21 03:54:48;;;;;;;19.73;4.07;;;23.20;50.80;;;;;;5060300;28;20555;-84
2021/06/21 03:57:15;;;;;;;8.90;3.97;;;23.60;50.30;;;;;;5078589;28;20490;-84
2021/06/21 03:59:42;;;;;;;19.47;3.77;;;23.50;50.00;;;;;;5080611;28;20495;-83
2021/06/21 04:02:10;;;;;;;11.50;3.90;;;23.50;49.90;;;;;;5076005;28;20467;-83
2021/06/21 04:04:37;;;;;;;12.73;3.40;;;23.00;50.90;;;;;;5062341;28;20605;-83
2021/06/21 04:07:06;;;;;;;9.97;3.43;;;23.00;50.70;;;;;;5076762;28;20495;-83
2021/06/21 04:09:33;;;;;;;16.90;3.47;;;22.90;51.10;;;;;;5084199;28;20451;-82
2021/06/21 04:12:00;;;;;;;24.13;3.43;;;23.00;51.10;;;;;;5080913;28;20847;-83
2021/06/21 04:14:27;;;;;;;14.57;3.17;;;23.10;50.50;;;;;;5064107;28;20464;-83
2021/06/21 04:16:54;;;;;;;14.73;3.40;;;23.00;50.80;;;;;;5063013;28;20555;-83
2021/06/21 04:19:22;;;;;;;17.20;4.57;;;23.00;51.00;;;;;;5072040;28;20957;-83
2021/06/21 04:21:49;;;;;;;11.57;3.50;;;22.80;51.40;;;;;;5063314;28;20495;-83
2021/06/21 04:24:16;;;;;;;22.30;4.13;;;22.50;51.90;;;;;;5061770;28;20531;-83
2021/06/21 04:26:43;;;;;;;18.83;3.23;;;22.80;51.80;;;;;;5073059;28;20848;-83
2021/06/21 04:29:10;;;;;;;21.20;3.57;;;22.70;51.90;;;;;;5067270;28;20523;-83
2021/06/21 04:31:36;;;;;;;22.57;4.30;;;22.60;52.30;;;;;;5062835;28;20826;-83
2021/06/21 04:34:03;;;;;;;18.83;3.90;;;22.70;52.10;;;;;;5081631;28;20493;-83
2021/06/21 04:36:31;;;;;;;26.60;3.83;;;23.00;52.20;;;;;;5081818;28;20446;-83
2021/06/21 04:38:58;;;;;;;10.23;3.37;;;22.90;51.90;;;;;;5083717;28;20498;-82
2021/06/21 04:41:25;;;;;;;27.60;5.17;;;22.40;53.00;;;;;;5079061;28;20467;-82
2021/06/21 04:43:52;;;;;;;18.77;3.60;;;22.40;52.80;;;;;;5075859;28;20554;-84
2021/06/21 04:46:23;;;;;;;26.40;4.00;;;22.90;52.00;;;;;;5080274;28;20522;-82
2021/06/21 04:48:50;;;;;;;22.27;4.13;;;23.20;51.40;;;;;;5081244;28;20554;-82
2021/06/21 04:51:18;;;;;;;13.47;3.10;;;23.50;50.50;;;;;;5082818;28;20502;-82
2021/06/21 04:53:48;;;;;;;21.50;4.83;;;23.90;49.60;;;;;;5079178;28;20471;-82
2021/06/21 04:56:15;;;;;;;7.40;3.10;;;23.90;48.80;;;;;;5076203;28;20522;-82
2021/06/21 04:58:42;;;;;;;16.03;2.83;;;23.60;49.30;;;;;;5061564;28;20472;-82
2021/06/21 05:01:09;;;;;;;18.93;3.23;;;23.40;50.00;;;;;;5079802;28;20483;-81
2021/06/21 05:03:37;;;;;;;15.90;3.97;;;23.50;49.40;;;;;;5081699;28;20505;-81
2021/06/21 05:06:04;;;;;;;17.80;5.50;;;23.70;49.00;;;;;;5080804;28;20482;-81
2021/06/21 05:08:31;;;;;;;13.83;3.30;;;23.80;48.30;;;;;;5077769;28;20467;-81
2021/06/21 05:11:00;;;;;;;18.53;3.53;;;23.90;48.30;;;;;;5080629;28;20892;-82
2021/06/21 05:13:27;;;;;;;11.60;4.17;;;24.00;48.20;;;;;;5081498;28;20500;-82
2021/06/21 05:15:54;;;;;;;16.10;3.50;;;24.20;48.30;;;;;;5080453;28;20510;-81
2021/06/21 05:18:20;;;;;;;12.60;3.70;;;24.40;48.50;;;;;;5069474;28;20499;-82
2021/06/21 05:20:47;;;;;;;8.77;2.90;;;24.50;48.50;;;;;;5066453;28;20546;-82
2021/06/21 05:23:14;;;;;;;15.73;3.70;;;24.90;47.70;;;;;;5081972;28;20474;-82
2021/06/21 05:25:41;;;;;;;10.70;3.10;;;25.10;47.20;;;;;;5081445;28;20550;-82
2021/06/21 05:28:09;;;;;;;29.93;3.40;;;25.50;46.50;;;;;;5077279;28;20529;-82
2021/06/21 05:30:36;;;;;;;14.63;3.80;;;25.80;46.50;;;;;;5060842;28;20460;-82
2021/06/21 05:33:03;;;;;;;17.70;5.00;;;26.00;45.70;;;;;;5060702;28;20969;-82
2021/06/21 05:35:30;;;;;;;13.93;3.93;;;26.30;44.80;;;;;;5062073;28;20539;-82
2021/06/21 05:37:57;;;;;;;12.23;3.20;;;26.30;45.90;;;;;;5079250;28;20524;-83
2021/06/21 05:40:24;;;;;;;29.53;5.07;;;26.70;45.00;;;;;;5079349;28;20459;-83
2021/06/21 05:42:51;;;;;;;18.20;4.07;;;27.60;45.10;;;;;;5079906;28;20531;-83
2021/06/21 05:45:19;;;;;;;18.10;3.87;;;29.30;42.90;;;;;;5080750;28;20518;-82
2021/06/21 05:47:46;;;;;;;17.70;3.03;;;31.00;39.70;;;;;;5080545;28;20455;-82
2021/06/21 05:50:14;;;;;;;18.03;3.00;;;32.00;34.60;;;;;;5078501;28;20459;-83
2021/06/21 05:52:41;;;;;;;25.97;3.83;;;31.90;35.30;;;;;;5068503;28;20486;-82
2021/06/21 05:55:09;;;;;;;7.60;2.90;;;31.40;33.30;;;;;;5060364;28;20464;-82
2021/06/21 05:57:36;;;;;;;18.57;4.53;;;30.90;35.60;;;;;;5078818;28;20463;-84
2021/06/21 06:00:05;;;;;;;14.60;3.57;;;30.40;35.60;;;;;;5061710;28;20488;-82
2021/06/21 06:02:33;;;;;;;14.10;3.77;;;30.70;37.30;;;;;;5070195;28;20464;-82
2021/06/21 06:05:00;;;;;;;15.00;3.23;;;31.10;35.30;;;;;;5077043;28;21026;-82
2021/06/21 06:07:27;;;;;;;18.53;3.10;;;32.10;35.60;;;;;;5078589;28;20474;-82
2021/06/21 06:09:54;;;;;;;23.93;3.37;;;33.10;32.30;;;;;;5061914;28;20825;-82
2021/06/21 06:12:21;;;;;;;11.43;3.23;;;34.40;30.60;;;;;;5061646;28;20488;-82
2021/06/21 06:14:48;;;;;;;20.07;3.23;;;34.90;30.00;;;;;;5066157;28;20472;-81
2021/06/21 06:17:15;;;;;;;10.60;3.00;;;35.50;28.60;;;;;;5079544;28;20477;-82
2021/06/21 06:19:43;;;;;;;13.67;3.53;;;35.60;27.90;;;;;;5076019;28;20481;-82
2021/06/21 06:22:11;;;;;;;11.83;3.10;;;36.80;26.70;;;;;;5059059;28;20496;-82
2021/06/21 06:24:38;;;;;;;8.13;2.53;;;36.10;26.40;;;;;;5060260;28;20488;-82
2021/06/21 06:27:06;;;;;;;10.47;2.47;;;35.10;26.90;;;;;;5061023;28;20519;-82
2021/06/21 06:29:34;;;;;;;19.00;3.30;;;34.70;27.50;;;;;;5061956;28;20440;-81
2021/06/21 06:32:01;;;;;;;17.43;3.33;;;34.50;28.10;;;;;;5065950;28;20455;-83
2021/06/21 06:34:28;;;;;;;8.27;3.30;;;35.30;27.00;;;;;;5082813;28;20510;-82
2021/06/21 06:36:57;;;;;;;6.90;2.70;;;35.80;26.40;;;;;;5080988;28;20514;-82
2021/06/21 06:39:24;;;;;;;6.63;2.83;;;36.40;25.00;;;;;;5074784;28;20470;-81
2021/06/21 06:41:51;;;;;;;14.20;3.87;;;36.50;25.60;;;;;;5060292;28;20455;-82
2021/06/21 06:44:19;;;;;;;22.73;2.80;;;36.90;25.10;;;;;;5060636;28;20464;-82
2021/06/21 06:46:46;;;;;;;14.10;3.00;;;36.90;25.30;;;;;;5060645;28;20907;-82
2021/06/21 06:49:13;;;;;;;14.70;2.77;;;37.30;25.60;;;;;;5072061;28;20963;-84
2021/06/21 06:51:42;;;;;;;6.63;2.30;;;37.30;24.20;;;;;;5089992;28;20459;-82
2021/06/21 06:54:22;;;;;;;13.87;3.17;;;36.60;25.10;;;;;;5093015;28;20455;-82
2021/06/21 06:56:58;;;;;;;12.33;2.73;;;37.00;24.80;;;;;;5094151;28;20434;-82
2021/06/21 06:59:26;;;;;;;7.80;2.47;;;37.10;25.00;;;;;;5094356;28;20453;-82
2021/06/21 07:01:53;;;;;;;13.33;2.83;;;36.80;24.20;;;;;;5089725;28;20478;-81
2021/06/21 07:04:20;;;;;;;11.23;2.30;;;36.90;24.60;;;;;;5085817;28;20471;-82
2021/06/21 07:06:47;;;;;;;16.43;3.47;;;37.10;24.90;;;;;;5092436;28;20486;-82
2021/06/21 07:09:16;;;;;;;13.50;2.40;;;37.40;24.40;;;;;;5095546;28;20439;-82
2021/06/21 07:11:45;;;;;;;13.13;2.60;;;37.60;23.90;;;;;;5090185;28;20478;-82
2021/06/21 07:14:13;;;;;;;17.67;2.90;;;37.80;24.30;;;;;;5076463;28;20467;-83
2021/06/21 07:16:40;;;;;;;5.37;2.30;;;38.00;23.60;;;;;;5077273;28;20444;-82
2021/06/21 07:19:07;;;;;;;16.03;2.40;;;37.80;23.50;;;;;;5072483;28;20735;-83
2021/06/21 07:21:34;;;;;;;16.07;2.63;;;38.00;22.90;;;;;;5074096;28;20478;-81
2021/06/21 07:24:01;;;;;;;12.00;2.70;;;37.40;23.20;;;;;;5081259;28;20471;-82
2021/06/21 07:26:29;;;;;;;19.73;2.80;;;36.40;23.70;;;;;;5076366;28;20555;-82
2021/06/21 07:28:56;;;;;;;8.10;2.47;;;35.90;24.30;;;;;;5064041;28;20497;-82
2021/06/21 07:31:24;;;;;;;13.70;2.53;;;35.50;25.20;;;;;;5067703;28;20475;-83
2021/06/21 07:33:51;;;;;;;14.00;2.20;;;35.40;25.40;;;;;;5079218;28;20443;-82
2021/06/21 07:36:18;;;;;;;17.07;3.60;;;36.00;25.40;;;;;;5087256;28;20501;-82
2021/06/21 07:38:45;;;;;;;11.77;2.50;;;36.60;24.00;;;;;;5074510;28;20456;-83
2021/06/21 07:41:12;;;;;;;10.20;3.10;;;36.90;23.70;;;;;;5084852;28;20447;-82
2021/06/21 07:43:40;;;;;;;5.17;2.03;;;36.00;24.20;;;;;;5087599;28;20525;-82
2021/06/21 07:46:07;;;;;;;6.83;2.47;;;35.70;24.40;;;;;;5070969;28;20472;-82
2021/06/21 07:48:37;;;;;;;7.83;2.60;;;36.50;23.70;;;;;;5065684;28;20470;-82
2021/06/21 07:51:07;;;;;;;6.83;2.20;;;37.00;22.50;;;;;;5067903;28;20436;-80
2021/06/21 07:53:34;;;;;;;5.50;2.47;;;37.10;22.70;;;;;;5070964;28;20853;-81
2021/06/21 07:56:01;;;;;;;12.87;2.20;;;37.00;22.30;;;;;;5072659;28;20467;-81
2021/06/21 07:58:28;;;;;;;6.23;2.00;;;36.70;23.00;;;;;;5086032;28;20487;-81
2021/06/21 08:00:56;;;;;;;6.40;2.67;;;36.40;22.60;;;;;;5095235;28;20459;-81
2021/06/21 08:03:24;;;;;;;10.17;2.33;;;35.50;24.80;;;;;;5098447;28;20462;-82
2021/06/21 08:05:51;;;;;;;6.87;2.40;;;34.40;24.10;;;;;;5091384;28;20487;-81
2021/06/21 08:08:19;;;;;;;7.20;2.20;;;34.30;25.30;;;;;;5088298;28;20455;-81
2021/06/21 08:10:46;;;;;;;12.43;2.50;;;33.50;24.60;;;;;;5100479;28;20427;-82
2021/06/21 08:13:13;;;;;;;5.70;2.13;;;33.20;25.90;;;;;;5098281;28;20459;-81
2021/06/21 08:15:40;;;;;;;5.13;2.10;;;33.20;25.90;;;;;;5098761;28;20475;-80
2021/06/21 08:18:10;;;;;;;6.87;2.23;;;33.20;25.90;;;;;;5097403;28;20436;-81
2021/06/21 08:20:39;;;;;;;5.03;1.93;;;33.20;25.90;;;;;;5080950;28;20451;-81
2021/06/21 08:23:06;;;;;;;8.83;2.20;;;34.10;26.40;;;;;;5068291;28;20491;-81
2021/06/21 08:25:33;;;;;;;5.73;2.07;;;35.10;24.40;;;;;;5062606;28;20484;-81
2021/06/21 08:28:00;;;;;;;5.23;2.30;;;35.10;24.00;;;;;;5065428;28;20518;-81
2021/06/21 08:30:27;;;;;;;9.40;1.90;;;35.80;23.30;;;;;;5072271;28;20483;-81
2021/06/21 08:32:54;;;;;;;4.70;2.00;;;36.30;23.10;;;;;;5071828;28;20493;-81
2021/06/21 08:35:22;;;;;;;8.40;2.40;;;36.00;22.60;;;;;;5080321;28;20506;-81
2021/06/21 08:37:49;;;;;;;8.77;2.20;;;35.50;24.00;;;;;;5082201;28;20463;-81
2021/06/21 08:40:19;;;;;;;6.83;2.30;;;35.90;23.40;;;;;;5065925;28;20460;-81
2021/06/21 08:42:46;;;;;;;5.70;2.13;;;36.30;22.40;;;;;;5065653;28;20948;-81
2021/06/21 08:45:14;;;;;;;6.27;2.67;;;36.00;22.30;;;;;;5062436;28;20468;-81
2021/06/21 08:47:41;;;;;;;5.43;2.00;;;35.40;22.10;;;;;;5081050;28;20471;-81
2021/06/21 08:50:10;;;;;;;8.97;2.40;;;34.90;22.70;;;;;;5081492;28;20466;-80
2021/06/21 08:52:42;;;;;;;8.97;2.23;;;35.00;23.20;;;;;;5080797;28;20447;-81
2021/06/21 08:55:10;;;;;;;7.47;2.30;;;35.60;22.10;;;;;;5079661;28;20463;-81
2021/06/21 08:57:39;;;;;;;6.37;2.00;;;36.10;22.30;;;;;;5062971;28;20472;-81
2021/06/21 09:00:08;;;;;;;11.37;2.23;;;36.30;21.90;;;;;;5060147;28;20487;-80
2021/06/21 09:02:35;;;;;;;8.90;2.10;;;36.60;21.80;;;;;;5059369;28;20476;-81
2021/06/21 09:05:05;;;;;;;4.43;2.10;;;36.40;22.60;;;;;;5059437;28;20511;-81
2021/06/21 09:07:32;;;;;;;4.40;1.87;;;36.50;22.00;;;;;;5060441;28;20468;-81
2021/06/21 09:10:05;;;;;;;11.30;2.53;;;35.90;22.20;;;;;;5058564;28;20813;-81
2021/06/21 09:12:33;;;;;;;7.53;2.17;;;36.30;22.60;;;;;;5059636;28;20436;-81
2021/06/21 09:15:05;;;;;;;19.10;2.80;;;35.80;22.60;;;;;;5058752;28;20507;-81
2021/06/21 09:17:36;;;;;;;8.27;2.13;;;35.20;23.50;;;;;;5062882;28;20433;-81
2021/06/21 09:20:06;;;;;;;10.27;2.40;;;35.80;22.80;;;;;;5079735;28;20467;-81
2021/06/21 09:22:37;;;;;;;4.47;1.80;;;36.00;22.70;;;;;;5077585;28;20440;-81
2021/06/21 09:25:09;;;;;;;7.57;2.10;;;35.90;22.30;;;;;;5077979;28;20541;-81
2021/06/21 09:27:39;;;;;;;3.70;2.27;;;35.30;22.80;;;;;;5077673;28;20503;-82
2021/06/21 09:30:08;;;;;;;8.87;2.70;;;34.80;23.20;;;;;;5077658;28;20482;-81
2021/06/21 09:32:41;;;;;;;6.40;2.40;;;34.60;23.10;;;;;;5078811;28;20546;-81
2021/06/21 09:35:10;;;;;;;7.17;2.20;;;34.20;23.50;;;;;;5081799;28;20479;-81
2021/06/21 09:37:45;;;;;;;7.60;2.33;;;33.50;24.50;;;;;;5079081;28;20467;-81
2021/06/21 09:40:26;;;;;;;4.83;2.00;;;33.40;25.10;;;;;;5063762;28;20446;-81
2021/06/21 09:42:53;;;;;;;8.37;2.27;;;33.00;25.80;;;;;;5057408;28;20428;-81
2021/06/21 09:45:20;;;;;;;8.90;2.40;;;33.20;25.40;;;;;;5058446;28;20551;-81
2021/06/21 09:47:47;;;;;;;18.87;2.23;;;33.20;25.50;;;;;;5060020;28;20911;-81
2021/06/21 09:50:15;;;;;;;7.50;2.30;;;33.10;26.70;;;;;;5069313;28;20478;-80
2021/06/21 09:52:46;;;;;;;3.77;1.93;;;33.00;25.60;;;;;;5076892;28;20448;-81
2021/06/21 09:55:29;;;;;;;4.90;3.23;;;32.80;25.20;;;;;;5078688;28;20467;-81
2021/06/21 09:58:18;;;;;;;18.43;2.60;;;33.00;25.80;;;;;;5078960;28;20511;-81
2021/06/21 10:00:47;;;;;;;7.20;2.17;;;33.30;25.30;;;;;;5070284;28;20524;-82
2021/06/21 10:03:17;;;;;;;11.50;3.47;;;33.30;24.90;;;;;;5060711;28;20428;-82
2021/06/21 10:05:47;;;;;;;9.10;2.50;;;33.30;25.90;;;;;;5074424;28;20506;-82
2021/06/21 10:08:15;;;;;;;4.43;2.27;;;33.00;25.80;;;;;;5065989;28;20520;-82
2021/06/21 10:10:44;;;;;;;5.47;2.20;;;32.90;26.60;;;;;;5073198;28;20495;-82
2021/06/21 10:13:13;;;;;;;8.60;2.40;;;33.00;25.80;;;;;;5071260;28;20534;-82
2021/06/21 10:15:40;;;;;;;12.90;2.23;;;32.70;25.60;;;;;;5080708;28;20565;-81
2021/06/21 10:18:07;;;;;;;4.60;2.30;;;32.60;26.10;;;;;;5079061;28;20463;-82
2021/06/21 10:20:35;;;;;;;6.93;2.13;;;32.60;26.20;;;;;;5077055;28;20550;-83
2021/06/21 10:23:06;;;;;;;11.00;2.87;;;32.60;25.60;;;;;;5065876;28;20741;-82
2021/06/21 10:25:33;;;;;;;6.73;2.37;;;32.60;26.40;;;;;;5079580;28;20525;-82
2021/06/21 10:28:02;;;;;;;6.20;2.40;;;32.60;25.80;;;;;;5079410;28;20518;-82
2021/06/21 10:30:31;;;;;;;3.23;1.80;;;32.40;25.50;;;;;;5079231;28;20439;-82
2021/06/21 10:32:58;;;;;;;7.13;2.57;;;32.50;26.00;;;;;;5079886;28;20475;-82
2021/06/21 10:35:30;;;;;;;8.43;2.43;;;32.50;26.20;;;;;;5076357;28;20526;-82
2021/06/21 10:38:04;;;;;;;8.17;2.50;;;32.60;25.60;;;;;;5065728;28;20452;-81
2021/06/21 10:40:31;;;;;;;8.37;2.00;;;32.60;25.60;;;;;;5064383;28;20451;-82
2021/06/21 10:42:58;;;;;;;6.63;2.23;;;32.80;25.70;;;;;;5080047;28;20443;-82
2021/06/21 10:45:28;;;;;;;7.57;2.60;;;33.00;25.80;;;;;;5079206;28;20459;-82
2021/06/21 10:48:10;;;;;;;2.40;2.03;;;33.00;25.80;;;;;;5071327;28;20507;-81
2021/06/21 10:50:54;;;;;;;11.90;2.40;;;32.90;25.40;;;;;;5071811;28;20542;-82
2021/06/21 10:53:22;;;;;;;6.13;2.47;;;32.60;26.10;;;;;;5068758;28;20458;-82
2021/06/21 10:55:51;;;;;;;13.10;2.20;;;32.50;26.50;;;;;;5070356;28;20463;-82
2021/06/21 10:58:41;;;;;;;8.73;2.10;;;32.40;26.10;;;;;;5064315;28;20511;-85
2021/06/21 11:01:21;;;;;;;9.23;2.30;;;32.00;26.10;;;;;;5074095;28;20516;-84
2021/06/21 11:03:49;;;;;;;4.53;2.20;;;32.00;26.70;;;;;;5078996;28;20475;-83
2021/06/21 11:06:39;;;;;;;4.80;2.20;;;32.10;25.70;;;;;;5065331;28;20444;-83
2021/06/21 11:09:09;;;;;;;5.00;2.10;;;31.90;25.80;;;;;;5079488;28;20816;-82
2021/06/21 11:11:46;;;;;;;3.60;2.03;;;31.70;25.60;;;;;;5073587;28;20464;-82
2021/06/21 11:14:15;;;;;;;7.33;2.80;;;31.90;26.50;;;;;;5063661;28;21050;-82
2021/06/21 11:16:46;;;;;;;3.50;2.03;;;32.00;26.60;;;;;;5062481;28;20941;-80
2021/06/21 11:19:34;;;;;;;12.60;2.17;;;31.90;27.20;;;;;;5062950;28;20767;-81
2021/06/21 11:22:04;;;;;;;5.53;2.20;;;31.90;26.60;;;;;;5075819;28;20529;-82
2021/06/21 11:24:57;;;;;;;5.53;2.00;;;31.80;27.50;;;;;;5081190;28;20466;-81
2021/06/21 11:27:43;;;;;;;6.07;2.13;;;31.70;26.90;;;;;;5081850;28;20514;-81
2021/06/21 11:30:33;;;;;;;5.83;1.90;;;32.00;25.70;;;;;;5081847;28;20983;-81
2021/06/21 11:33:04;;;;;;;7.03;2.00;;;32.00;25.70;;;;;;5081171;28;20486;-82
2021/06/21 11:35:55;;;;;;;14.50;2.00;;;32.20;26.30;;;;;;5074530;28;20487;-82
2021/06/21 11:38:31;;;;;;;4.10;2.20;;;32.30;24.40;;;;;;5070454;28;20446;-83
2021/06/21 11:41:18;;;;;;;6.53;2.20;;;32.60;25.00;;;;;;5082835;28;20426;-82
2021/06/21 11:43:47;;;;;;;6.73;2.33;;;32.40;25.50;;;;;;5081914;28;20435;-82
2021/06/21 11:46:40;;;;;;;2.73;1.70;;;32.00;25.70;;;;;;5090213;28;20435;-81
2021/06/21 11:49:10;;;;;;;6.33;2.27;;;32.30;25.40;;;;;;5094000;28;20459;-82
2021/06/21 11:51:38;;;;;;;8.60;2.37;;;32.70;26.20;;;;;;5087312;28;20424;-81
2021/06/21 11:54:08;;;;;;;5.30;2.20;;;32.50;25.50;;;;;;5069447;28;20492;-81
2021/06/21 11:56:35;;;;;;;9.43;2.63;;;32.10;26.00;;;;;;5080518;28;20454;-81
2021/06/21 11:59:02;;;;;;;7.33;2.90;;;32.10;26.10;;;;;;5084043;28;20455;-81
2021/06/21 12:01:30;;;;;;;10.63;3.20;;;32.40;25.90;;;;;;5083352;28;20449;-83
2021/06/21 12:03:58;;;;;;;8.73;2.23;;;32.50;25.50;;;;;;5081472;28;20518;-82
2021/06/21 12:06:27;;;;;;;6.23;2.00;;;32.10;25.30;;;;;;5082051;28;20471;-82
2021/06/21 12:08:54;;;;;;;5.30;1.70;;;32.30;25.40;;;;;;5080722;28;20514;-82
2021/06/21 12:11:24;;;;;;;8.00;2.03;;;32.80;24.70;;;;;;5081389;28;20901;-81
2021/06/21 12:13:59;;;;;;;7.67;2.03;;;32.60;24.20;;;;;;5081232;28;20916;-82
2021/06/21 12:16:27;;;;;;;6.23;2.37;;;32.40;24.80;;;;;;5082974;28;20439;-82
2021/06/21 12:18:55;;;;;;;3.53;2.13;;;32.60;25.20;;;;;;5082699;28;20534;-82
2021/06/21 12:21:32;;;;;;;23.73;7.87;;;32.60;25.50;;;;;;5081425;28;20451;-81
2021/06/21 12:24:17;;;;;;;6.20;2.43;;;32.30;25.90;;;;;;5080966;28;20504;-82
2021/06/21 12:26:46;;;;;;;4.57;1.93;;;32.50;25.90;;;;;;5087506;28;20432;-83
2021/06/21 12:29:35;;;;;;;6.33;2.40;;;32.70;25.90;;;;;;5089372;28;20475;-82
2021/06/21 12:32:05;;;;;;;18.93;2.53;;;32.90;25.00;;;;;;5081546;28;20466;-80
2021/06/21 12:34:57;;;;;;;5.27;2.10;;;32.80;25.00;;;;;;5082910;28;20455;-81
2021/06/21 12:37:29;;;;;;;5.20;1.90;;;32.90;24.80;;;;;;5090371;28;20428;-82
2021/06/21 12:40:01;;;;;;;8.83;2.17;;;33.00;23.90;;;;;;5090364;28;20420;-82
2021/06/21 12:42:32;;;;;;;7.53;2.00;;;33.20;24.10;;;;;;5098339;28;20420;-82
2021/06/21 12:45:09;;;;;;;6.23;2.60;;;33.00;23.90;;;;;;5093187;28;20471;-82
2021/06/21 12:47:44;;;;;;;6.87;2.30;;;32.20;24.30;;;;;;5089146;28;20478;-80
2021/06/21 12:50:13;;;;;;;4.20;2.33;;;31.80;25.10;;;;;;5089392;28;20443;-82
2021/06/21 12:52:44;;;;;;;8.70;2.37;;;32.30;26.10;;;;;;5090546;28;20447;-83
2021/06/21 12:55:13;;;;;;;5.47;2.20;;;32.60;24.40;;;;;;5092324;28;20466;-81